Adams Center, New York
Current Conditions -  °F | °C
As of 7:35 PM on Wednesday 17 Dec 2014 (Local Time) from KART Reporting Station
Overcast Overcast  
Wind Chill: 31°   Ceiling: 3000
Heat Index: 39°   Visibility: 10mi
Dew Point: 32°   Wind: 15mph
Humidity: 76%   Direction: 250°WSW
Pressure: 29.84"   Gusts: 24mph
Location:  43.86°N, 76°W
Report Text: KART 180035Z AUTO 25013G21KT 10SM SCT015 BKN030 OVC055 04/00 A2984 RMK AO2 T00390000
Loading
Personal Weather Stations






























Interactive Weather Map New forecast layout! Learn more

10-Day Weather Forecast

Advertisements
Track Severe Weather on mobile